Time;durP1;ratioP1;P1;durP2;ratioP2;P2;SDS_P1;SDS_P2;PMS_P1;PMS_P2;Temp;Humidity;BMP_temperature;BMP_pressure;BME280_temperature;BME280_humidity;BME280_pressure;Samples;Min_cycle;Max_cycle;Signal;HPM_P1;HPM_P2
2022/10/11 00:01:58;;;;;;;2.75;1.10;;;20.30;61.20;;;;;;5093042;27;43581;-57
2022/10/11 00:04:26;;;;;;;1.42;0.80;;;20.30;61.20;;;;;;5106522;27;45111;-57
2022/10/11 00:06:53;;;;;;;1.48;0.85;;;20.30;61.30;;;;;;5107450;27;44004;-57
2022/10/11 00:09:21;;;;;;;1.67;1.02;;;20.30;61.20;;;;;;5107520;27;43494;-57
2022/10/11 00:11:48;;;;;;;2.30;1.10;;;20.30;61.40;;;;;;5110394;27;43503;-57
2022/10/11 00:14:16;;;;;;;1.45;0.98;;;20.30;61.30;;;;;;5108423;27;45099;-57
2022/10/11 00:16:43;;;;;;;2.08;1.30;;;20.30;61.30;;;;;;5114496;27;43972;-57
2022/10/11 00:19:11;;;;;;;3.17;1.30;;;20.30;61.20;;;;;;5117403;27;43459;-57
2022/10/11 00:21:38;;;;;;;0.88;0.70;;;20.30;61.30;;;;;;5117168;27;43641;-57
2022/10/11 00:24:06;;;;;;;2.83;1.20;;;20.20;61.30;;;;;;5118909;27;43777;-57
2022/10/11 00:26:33;;;;;;;2.63;1.10;;;20.20;61.40;;;;;;5106884;27;43996;-58
2022/10/11 00:29:00;;;;;;;1.65;1.00;;;20.20;61.30;;;;;;5107726;27;43429;-57
2022/10/11 00:31:28;;;;;;;2.47;1.23;;;20.20;61.20;;;;;;5110069;27;43435;-57
2022/10/11 00:34:01;;;;;;;2.63;1.15;;;20.20;61.20;;;;;;5107176;27;44976;-57
2022/10/11 00:36:29;;;;;;;1.58;1.10;;;20.20;61.20;;;;;;5107085;27;43429;-57
2022/10/11 00:38:56;;;;;;;1.98;1.13;;;20.20;61.20;;;;;;5108040;27;43392;-57
2022/10/11 00:41:24;;;;;;;1.73;0.98;;;20.20;61.40;;;;;;5110651;27;43422;-57
2022/10/11 00:44:15;;;;;;;2.45;1.17;;;20.20;61.40;;;;;;5108451;27;45140;-57
2022/10/11 00:46:57;;;;;;;1.75;1.17;;;20.20;61.30;;;;;;5109934;27;45065;-57
2022/10/11 00:49:34;;;;;;;1.40;1.05;;;20.20;61.40;;;;;;5116799;27;43451;-57
2022/10/11 00:52:21;;;;;;;2.10;1.10;;;20.10;61.40;;;;;;5106703;27;43541;-57
2022/10/11 00:54:49;;;;;;;2.00;1.10;;;20.10;61.40;;;;;;5109983;27;45284;-57
2022/10/11 00:57:20;;;;;;;2.42;1.30;;;20.10;61.40;;;;;;5110504;27;43715;-57
2022/10/11 00:59:49;;;;;;;;;;;20.10;61.40;;;;;;5110737;27;43869;-57
2022/10/11 01:02:18;;;;;;;1.52;1.08;;;20.10;61.40;;;;;;5110839;27;43612;-57
2022/10/11 01:04:46;;;;;;;1.75;1.10;;;20.10;61.60;;;;;;5113228;27;44972;-57
2022/10/11 01:07:14;;;;;;;1.42;0.90;;;20.10;61.40;;;;;;5110591;27;43462;-57
2022/10/11 01:09:41;;;;;;;1.55;1.00;;;20.10;61.40;;;;;;5110806;27;43445;-57
2022/10/11 01:12:17;;;;;;;1.63;1.05;;;20.10;61.50;;;;;;5111056;27;43627;-57
2022/10/11 01:15:08;;;;;;;2.50;1.17;;;20.10;61.50;;;;;;5109779;27;44782;-57
2022/10/11 01:18:00;;;;;;;1.73;1.10;;;20.10;61.40;;;;;;5109455;27;43992;-58
2022/10/11 01:20:31;;;;;;;1.65;1.00;;;20.10;61.40;;;;;;5112118;27;43375;-57
2022/10/11 01:23:10;;;;;;;1.92;0.90;;;20.00;61.40;;;;;;5110622;27;43404;-57
2022/10/11 01:25:56;;;;;;;1.67;0.95;;;20.00;61.30;;;;;;5109408;27;44713;-57
2022/10/11 01:28:29;;;;;;;2.17;1.00;;;20.00;61.30;;;;;;5112382;27;43685;-57
2022/10/11 01:31:06;;;;;;;1.67;0.90;;;20.10;61.40;;;;;;5119367;27;43482;-57
2022/10/11 01:34:02;;;;;;;1.75;1.05;;;20.00;61.30;;;;;;5109773;27;43446;-57
2022/10/11 01:36:41;;;;;;;1.75;1.10;;;20.00;61.40;;;;;;5093228;27;45045;-60
2022/10/11 01:39:34;;;;;;;1.83;1.00;;;20.00;61.30;;;;;;5110249;27;43465;-57
2022/10/11 01:42:05;;;;;;;1.65;1.20;;;20.00;61.30;;;;;;5118829;27;43416;-57
2022/10/11 01:44:34;;;;;;;1.30;0.85;;;19.90;61.40;;;;;;5120940;27;43532;-57
2022/10/11 01:47:02;;;;;;;1.27;1.10;;;19.90;61.30;;;;;;5109557;27;43770;-57
2022/10/11 01:49:29;;;;;;;1.70;1.00;;;19.90;61.40;;;;;;5108807;27;43343;-57
2022/10/11 01:52:03;;;;;;;1.10;0.90;;;19.90;61.30;;;;;;5094652;27;43448;-57
2022/10/11 01:54:56;;;;;;;2.63;1.23;;;19.90;61.20;;;;;;5112241;27;43426;-57
2022/10/11 01:57:50;;;;;;;2.25;1.10;;;19.90;61.20;;;;;;5109373;27;44957;-57
2022/10/11 02:00:20;;;;;;;1.70;1.13;;;19.90;61.30;;;;;;5110464;27;43393;-57
2022/10/11 02:03:03;;;;;;;1.55;0.90;;;19.90;61.30;;;;;;5090825;27;43475;-57
2022/10/11 02:05:44;;;;;;;1.65;0.93;;;19.90;61.20;;;;;;5110415;27;43474;-57
2022/10/11 02:08:23;;;;;;;2.03;0.75;;;19.90;61.30;;;;;;5109127;27;44787;-57
2022/10/11 02:11:13;;;;;;;2.03;1.10;;;19.90;61.30;;;;;;5109187;27;43807;-57
2022/10/11 02:13:44;;;;;;;2.28;1.27;;;19.90;61.30;;;;;;5109642;27;43466;-57
2022/10/11 02:16:17;;;;;;;1.27;0.98;;;19.80;61.40;;;;;;5117495;27;43502;-57
2022/10/11 02:18:51;;;;;;;2.72;1.20;;;19.90;61.30;;;;;;5111866;27;44829;-57
2022/10/11 02:21:21;;;;;;;2.13;1.00;;;19.80;61.20;;;;;;5109605;27;43871;-57
2022/10/11 02:24:16;;;;;;;1.57;0.70;;;19.80;61.20;;;;;;5110099;27;43642;-57
2022/10/11 02:26:51;;;;;;;1.98;1.08;;;19.80;61.30;;;;;;5108783;27;43521;-57
2022/10/11 02:29:20;;;;;;;3.20;1.23;;;19.80;61.30;;;;;;5111967;27;45153;-57
2022/10/11 02:31:49;;;;;;;1.45;1.23;;;19.80;61.30;;;;;;5108913;27;43667;-57
2022/10/11 02:34:26;;;;;;;1.45;0.93;;;19.80;61.20;;;;;;5094444;27;43420;-57
2022/10/11 02:37:14;;;;;;;1.73;1.08;;;19.80;61.20;;;;;;5109526;27;43569;-57
2022/10/11 02:39:54;;;;;;;1.77;1.00;;;19.80;61.20;;;;;;5108831;27;44940;-57
2022/10/11 02:42:36;;;;;;;2.67;1.10;;;19.80;61.30;;;;;;5109981;27;43985;-57
2022/10/11 02:45:17;;;;;;;2.95;1.08;;;19.80;61.30;;;;;;5111045;27;43512;-58
2022/10/11 02:47:45;;;;;;;1.73;1.23;;;19.80;61.20;;;;;;5117088;27;43394;-57
2022/10/11 02:50:13;;;;;;;1.90;1.20;;;19.70;61.20;;;;;;5108956;27;44984;-57
2022/10/11 02:52:41;;;;;;;2.50;1.20;;;19.70;61.20;;;;;;5108901;27;43828;-57
2022/10/11 02:55:09;;;;;;;1.75;1.10;;;19.70;61.20;;;;;;5110948;27;43487;-57
2022/10/11 02:57:37;;;;;;;1.63;1.05;;;19.70;61.20;;;;;;5108503;27;43590;-57
2022/10/11 03:00:06;;;;;;;1.30;1.00;;;19.70;61.20;;;;;;5108148;27;44801;-57
2022/10/11 03:02:33;;;;;;;1.80;1.08;;;19.70;61.20;;;;;;5109383;27;43714;-57
2022/10/11 03:05:01;;;;;;;1.30;1.05;;;19.70;61.10;;;;;;5110258;27;43414;-57
2022/10/11 03:07:28;;;;;;;2.47;1.05;;;19.70;61.20;;;;;;5107697;27;43886;-58
2022/10/11 03:09:56;;;;;;;1.58;1.00;;;19.70;61.20;;;;;;5108607;27;46053;-57
2022/10/11 03:12:23;;;;;;;2.38;1.30;;;19.70;61.20;;;;;;5109015;27;44283;-57
2022/10/11 03:14:51;;;;;;;1.98;1.40;;;19.70;61.20;;;;;;5110391;27;43466;-56
2022/10/11 03:17:19;;;;;;;1.33;0.85;;;19.70;61.20;;;;;;5108134;27;43511;-57
2022/10/11 03:20:03;;;;;;;1.75;1.00;;;19.70;61.20;;;;;;5108011;27;44684;-57
2022/10/11 03:22:30;;;;;;;1.45;1.00;;;19.70;61.20;;;;;;5111462;27;44125;-57
2022/10/11 03:24:58;;;;;;;1.45;0.82;;;19.60;61.20;;;;;;5121468;27;43377;-57
2022/10/11 03:27:31;;;;;;;2.60;1.17;;;19.60;61.20;;;;;;5115033;27;43450;-57
2022/10/11 03:29:58;;;;;;;1.73;1.13;;;19.60;61.20;;;;;;5108548;27;44826;-57
2022/10/11 03:32:26;;;;;;;1.10;0.82;;;19.60;61.20;;;;;;5109628;27;43954;-57
2022/10/11 03:34:54;;;;;;;2.00;1.00;;;19.60;61.10;;;;;;5107601;27;43495;-57
2022/10/11 03:37:21;;;;;;;2.50;1.08;;;19.60;61.10;;;;;;5107920;27;43498;-57
2022/10/11 03:39:49;;;;;;;1.55;1.00;;;19.60;61.10;;;;;;5108077;27;45054;-57
2022/10/11 03:42:16;;;;;;;1.42;0.85;;;19.60;61.20;;;;;;5114089;27;44083;-58
2022/10/11 03:44:44;;;;;;;2.38;1.05;;;19.60;61.20;;;;;;5107851;27;43450;-57
2022/10/11 03:47:11;;;;;;;2.35;1.30;;;19.60;61.10;;;;;;5108140;27;43551;-57
2022/10/11 03:49:39;;;;;;;2.40;1.27;;;19.60;61.10;;;;;;5107223;27;44810;-57
2022/10/11 03:52:10;;;;;;;2.33;1.40;;;19.60;61.10;;;;;;5111158;27;43767;-57
2022/10/11 03:54:37;;;;;;;2.30;1.23;;;19.60;61.20;;;;;;5110575;27;43388;-57
2022/10/11 03:57:05;;;;;;;2.25;1.25;;;19.60;61.20;;;;;;5115092;27;43553;-57
2022/10/11 03:59:32;;;;;;;1.55;0.80;;;19.60;61.10;;;;;;5108291;27;44073;-57
2022/10/11 04:02:00;;;;;;;2.08;1.25;;;19.50;61.10;;;;;;5109967;27;43377;-57
2022/10/11 04:04:27;;;;;;;2.13;1.23;;;19.50;61.10;;;;;;5107631;27;43357;-57
2022/10/11 04:06:55;;;;;;;2.10;1.00;;;19.50;61.00;;;;;;5107737;27;43612;-57
2022/10/11 04:09:22;;;;;;;2.83;1.25;;;19.50;61.10;;;;;;5107727;27;44076;-58
2022/10/11 04:11:49;;;;;;;3.47;1.40;;;19.50;61.10;;;;;;5109754;27;44134;-57
2022/10/11 04:14:17;;;;;;;2.25;1.30;;;19.50;61.10;;;;;;5109262;27;43484;-57
2022/10/11 04:16:44;;;;;;;3.40;1.73;;;19.50;61.70;;;;;;5114115;27;43616;-57
2022/10/11 04:19:12;;;;;;;2.80;1.10;;;19.50;61.10;;;;;;5116384;27;44982;-57
2022/10/11 04:21:39;;;;;;;2.30;1.17;;;19.50;61.10;;;;;;5107302;27;43984;-57
2022/10/11 04:24:08;;;;;;;1.00;0.88;;;19.50;61.10;;;;;;5106935;27;43413;-56
2022/10/11 04:26:35;;;;;;;2.25;1.08;;;19.50;61.10;;;;;;5106627;27;43479;-57
2022/10/11 04:29:04;;;;;;;2.88;1.30;;;19.40;61.10;;;;;;5107906;27;44985;-57
2022/10/11 04:31:32;;;;;;;2.13;0.95;;;19.40;61.10;;;;;;5108195;27;43932;-57
2022/10/11 04:33:59;;;;;;;1.55;1.02;;;19.40;61.10;;;;;;5104679;27;43447;-57
2022/10/11 04:36:27;;;;;;;2.60;1.23;;;19.40;61.70;;;;;;5106673;27;43609;-57
2022/10/11 04:38:55;;;;;;;2.25;1.17;;;19.40;61.10;;;;;;5107885;27;44739;-57
2022/10/11 04:41:22;;;;;;;1.40;1.00;;;19.40;61.10;;;;;;5110570;27;43997;-57
2022/10/11 04:43:49;;;;;;;1.73;0.95;;;19.40;61.10;;;;;;5106303;27;43436;-57
2022/10/11 04:46:17;;;;;;;1.88;1.25;;;19.40;61.10;;;;;;5084693;27;43613;-57
2022/10/11 04:48:44;;;;;;;2.05;1.30;;;19.40;61.10;;;;;;5087123;27;44787;-58
2022/10/11 04:51:12;;;;;;;1.83;1.02;;;19.40;61.10;;;;;;5088327;27;43647;-57
2022/10/11 04:53:39;;;;;;;1.90;1.27;;;19.40;61.00;;;;;;5085901;27;43432;-57
2022/10/11 04:56:10;;;;;;;1.63;1.13;;;19.40;61.10;;;;;;5089076;27;43577;-57
2022/10/11 04:58:41;;;;;;;;;;;19.40;61.10;;;;;;5087335;27;44065;-57
2022/10/11 05:01:09;;;;;;;2.20;1.00;;;19.40;61.20;;;;;;5088086;27;43708;-57
2022/10/11 05:03:37;;;;;;;2.30;1.10;;;19.30;61.10;;;;;;5090595;27;43637;-57
2022/10/11 05:06:04;;;;;;;1.30;1.00;;;19.40;61.20;;;;;;5096722;27;43460;-57
2022/10/11 05:08:32;;;;;;;1.98;1.05;;;19.30;61.20;;;;;;5100066;27;44675;-57
2022/10/11 05:11:05;;;;;;;2.42;1.20;;;19.30;61.80;;;;;;5088103;27;43779;-56
2022/10/11 05:13:34;;;;;;;2.65;1.17;;;19.30;61.20;;;;;;5088261;27;43428;-57
2022/10/11 05:16:03;;;;;;;2.20;1.20;;;19.30;61.10;;;;;;5098231;27;43565;-57
2022/10/11 05:18:37;;;;;;;3.10;1.08;;;19.30;61.10;;;;;;5095762;27;44798;-57
2022/10/11 05:21:16;;;;;;;1.67;1.10;;;19.30;61.20;;;;;;5094105;27;43992;-57
2022/10/11 05:23:46;;;;;;;1.92;1.00;;;19.30;61.10;;;;;;5093536;27;43466;-57
2022/10/11 05:26:15;;;;;;;1.95;1.05;;;19.30;61.20;;;;;;5097317;27;43470;-57
2022/10/11 05:28:42;;;;;;;2.42;1.33;;;19.30;61.20;;;;;;5098701;27;44046;-58
2022/10/11 05:31:10;;;;;;;1.83;1.20;;;19.30;61.20;;;;;;5087510;27;43641;-57
2022/10/11 05:33:38;;;;;;;1.77;1.30;;;19.30;61.20;;;;;;5094625;27;43408;-57
2022/10/11 05:36:06;;;;;;;3.03;1.02;;;19.30;61.20;;;;;;5099829;27;43591;-57
2022/10/11 05:38:35;;;;;;;1.58;0.93;;;19.20;61.10;;;;;;5086808;27;44996;-57
2022/10/11 05:41:03;;;;;;;1.92;1.13;;;19.20;61.10;;;;;;5088652;27;43954;-57
2022/10/11 05:43:31;;;;;;;3.38;1.25;;;19.20;61.10;;;;;;5097404;27;43433;-57
2022/10/11 05:45:59;;;;;;;2.88;1.40;;;19.20;61.10;;;;;;5114222;27;43506;-57
2022/10/11 05:48:27;;;;;;;2.20;1.27;;;19.20;61.10;;;;;;5108889;27;44996;-57
2022/10/11 05:51:04;;;;;;;1.13;1.00;;;19.20;61.10;;;;;;5113902;27;44146;-57
2022/10/11 05:53:32;;;;;;;3.03;1.42;;;19.20;61.20;;;;;;5122330;27;43449;-58
2022/10/11 05:55:59;;;;;;;1.73;0.93;;;19.20;61.20;;;;;;5113101;27;43500;-57
2022/10/11 05:58:27;;;;;;;2.35;1.20;;;19.20;61.20;;;;;;5110452;27;43788;-57
2022/10/11 06:00:55;;;;;;;2.40;1.10;;;19.20;61.10;;;;;;5116362;27;44073;-57
2022/10/11 06:03:23;;;;;;;2.78;1.17;;;19.20;61.10;;;;;;5117969;27;43596;-57
2022/10/11 06:05:50;;;;;;;0.98;0.80;;;19.20;61.10;;;;;;5113610;27;43613;-57
2022/10/11 06:08:23;;;;;;;3.50;1.50;;;19.20;61.10;;;;;;5113295;27;44633;-57
2022/10/11 06:10:50;;;;;;;2.30;1.30;;;19.20;61.10;;;;;;5124413;27;43814;-57
2022/10/11 06:13:17;;;;;;;1.40;1.00;;;19.20;61.20;;;;;;5109327;27;43362;-57
2022/10/11 06:15:45;;;;;;;1.98;1.30;;;19.20;61.20;;;;;;5112807;27;43415;-57
2022/10/11 06:18:14;;;;;;;2.15;1.20;;;19.10;61.10;;;;;;5115952;27;45276;-57
2022/10/11 06:20:41;;;;;;;2.67;1.13;;;19.10;61.10;;;;;;5120461;27;43418;-57
2022/10/11 06:23:08;;;;;;;2.55;1.50;;;19.10;61.10;;;;;;5112572;27;43463;-57
2022/10/11 06:25:36;;;;;;;2.17;1.10;;;19.10;61.10;;;;;;5121052;27;43656;-57
2022/10/11 06:28:03;;;;;;;3.08;1.40;;;19.10;61.10;;;;;;5115324;27;44136;-57
2022/10/11 06:30:30;;;;;;;2.42;1.10;;;19.10;61.10;;;;;;5123503;27;43401;-57
2022/10/11 06:32:58;;;;;;;3.05;1.25;;;19.10;61.10;;;;;;5113719;27;43423;-57
2022/10/11 06:35:31;;;;;;;2.38;1.20;;;19.10;61.10;;;;;;5113667;27;43485;-57
2022/10/11 06:37:58;;;;;;;2.53;1.10;;;19.10;61.10;;;;;;5117741;27;45326;-57
2022/10/11 06:40:25;;;;;;;1.33;1.08;;;19.10;61.10;;;;;;5121723;27;43932;-57
2022/10/11 06:42:53;;;;;;;2.45;1.00;;;19.10;61.10;;;;;;5116100;27;43445;-57
2022/10/11 06:45:20;;;;;;;2.05;1.23;;;19.10;61.20;;;;;;5114042;27;43622;-57
2022/10/11 06:47:48;;;;;;;1.38;1.10;;;19.00;61.20;;;;;;5119353;27;44968;-57
2022/10/11 06:50:15;;;;;;;2.13;1.27;;;19.10;61.20;;;;;;5115041;27;43475;-57
2022/10/11 06:52:56;;;;;;;1.65;1.23;;;19.00;61.20;;;;;;5121201;27;43965;-57
2022/10/11 06:55:23;;;;;;;2.00;1.20;;;19.10;61.20;;;;;;5109620;27;43473;-57
2022/10/11 06:57:51;;;;;;;2.63;1.13;;;19.00;61.20;;;;;;5121399;27;44811;-57
2022/10/11 07:00:18;;;;;;;1.63;1.10;;;19.00;61.20;;;;;;5112832;27;43469;-58
2022/10/11 07:02:47;;;;;;;1.70;1.15;;;19.00;61.20;;;;;;5115282;27;43406;-56
2022/10/11 07:05:16;;;;;;;1.85;1.33;;;19.00;61.20;;;;;;5107872;27;43623;-57
2022/10/11 07:07:43;;;;;;;2.40;1.20;;;19.00;61.40;;;;;;5112323;27;44985;-56
2022/10/11 07:10:11;;;;;;;1.90;1.23;;;19.00;61.30;;;;;;5118208;27;43454;-57
2022/10/11 07:12:42;;;;;;;3.05;1.25;;;19.00;61.40;;;;;;5119286;27;43494;-56
2022/10/11 07:15:09;;;;;;;2.42;1.30;;;18.90;61.40;;;;;;5109104;27;43482;-57
2022/10/11 07:17:37;;;;;;;2.22;1.40;;;19.00;61.40;;;;;;5114455;27;44785;-56
2022/10/11 07:20:06;;;;;;;2.17;1.30;;;18.90;61.50;;;;;;5121053;27;43969;-56
2022/10/11 07:22:33;;;;;;;3.65;1.90;;;18.90;61.40;;;;;;5123484;27;43412;-56
2022/10/11 07:25:01;;;;;;;2.28;1.23;;;18.90;61.50;;;;;;5109614;27;43589;-57
2022/10/11 07:27:28;;;;;;;2.13;1.10;;;19.00;61.60;;;;;;5115707;27;43792;-56
2022/10/11 07:29:56;;;;;;;2.22;1.23;;;18.90;61.40;;;;;;5122678;27;43706;-56
2022/10/11 07:32:23;;;;;;;2.97;1.27;;;19.00;61.40;;;;;;5111021;27;43364;-57
2022/10/11 07:34:51;;;;;;;1.88;1.00;;;19.00;61.50;;;;;;5110112;27;43564;-57
2022/10/11 07:37:19;;;;;;;2.33;1.35;;;19.00;61.50;;;;;;5118387;27;44152;-57
2022/10/11 07:39:48;;;;;;;2.95;1.25;;;19.00;61.50;;;;;;5122167;27;44092;-56
2022/10/11 07:42:16;;;;;;;1.45;1.30;;;19.00;61.50;;;;;;5114119;27;43540;-57
2022/10/11 07:44:43;;;;;;;2.63;1.17;;;19.00;61.50;;;;;;5110389;27;43373;-57
2022/10/11 07:47:10;;;;;;;1.92;1.08;;;19.00;61.50;;;;;;5118981;27;43787;-57
2022/10/11 07:49:57;;;;;;;1.60;1.02;;;19.00;61.50;;;;;;5123718;27;43449;-56
2022/10/11 07:52:24;;;;;;;1.23;1.13;;;19.00;61.50;;;;;;5108728;27;43379;-57
2022/10/11 07:54:52;;;;;;;1.38;1.05;;;18.90;61.50;;;;;;5113568;27;43557;-57
2022/10/11 07:57:19;;;;;;;2.13;1.40;;;19.00;62.40;;;;;;5123768;27;44041;-57
2022/10/11 07:59:46;;;;;;;2.42;1.23;;;19.00;61.60;;;;;;5115620;27;43490;-57
2022/10/11 08:02:16;;;;;;;5.88;1.67;;;19.00;61.60;;;;;;5116347;27;43474;-57
2022/10/11 08:04:43;;;;;;;5.32;2.50;;;19.00;62.20;;;;;;5106791;27;43581;-56
2022/10/11 08:07:11;;;;;;;4.90;2.75;;;19.10;61.60;;;;;;5121958;27;44954;-57
2022/10/11 08:09:38;;;;;;;3.33;2.17;;;19.10;61.60;;;;;;5110237;27;43419;-57
2022/10/11 08:12:06;;;;;;;4.10;2.50;;;19.10;61.60;;;;;;5115874;27;43377;-57
2022/10/11 08:14:33;;;;;;;2.30;2.00;;;19.10;61.60;;;;;;5117179;27;43612;-57
2022/10/11 08:17:01;;;;;;;2.63;2.00;;;19.10;61.60;;;;;;5121984;27;45017;-57
2022/10/11 08:19:28;;;;;;;4.38;2.30;;;19.10;61.50;;;;;;5117269;27;44121;-57
2022/10/11 08:21:56;;;;;;;5.15;2.30;;;19.10;61.50;;;;;;5107089;27;43457;-56
2022/10/11 08:24:24;;;;;;;5.82;2.55;;;19.20;61.60;;;;;;5117832;27;43553;-57
2022/10/11 08:26:52;;;;;;;3.17;1.90;;;19.20;61.60;;;;;;5122888;27;44060;-57
2022/10/11 08:29:19;;;;;;;3.13;2.20;;;19.20;61.60;;;;;;5106431;27;44030;-58
2022/10/11 08:31:47;;;;;;;2.97;2.10;;;19.30;61.70;;;;;;5110174;27;44311;-58
2022/10/11 08:34:14;;;;;;;3.88;2.30;;;19.40;61.60;;;;;;5117680;27;43686;-57
2022/10/11 08:36:42;;;;;;;2.42;1.70;;;19.60;61.40;;;;;;5113979;27;44624;-56
2022/10/11 08:39:10;;;;;;;3.72;1.88;;;19.80;61.30;;;;;;5117074;27;44000;-57
2022/10/11 08:41:46;;;;;;;3.42;2.10;;;19.90;61.10;;;;;;5099840;27;43954;-57
2022/10/11 08:44:35;;;;;;;3.45;2.20;;;20.10;60.90;;;;;;5116882;27;43491;-57
2022/10/11 08:47:29;;;;;;;2.80;2.00;;;20.20;60.90;;;;;;5110892;27;44958;-56
2022/10/11 08:49:58;;;;;;;1.90;1.50;;;20.50;60.40;;;;;;5118213;27;43974;-56
2022/10/11 08:52:49;;;;;;;3.63;1.90;;;20.60;60.00;;;;;;5111283;27;43437;-56
2022/10/11 08:55:20;;;;;;;;;;;20.80;59.70;;;;;;5115421;27;43481;-57
2022/10/11 08:57:54;;;;;;;2.60;1.70;;;20.90;59.40;;;;;;5112847;27;43984;-56
2022/10/11 09:00:23;;;;;;;3.28;1.80;;;21.00;59.30;;;;;;5114376;27;43450;-57
2022/10/11 09:03:02;;;;;;;3.05;1.75;;;21.00;59.30;;;;;;5120347;27;43435;-57
2022/10/11 09:05:43;;;;;;;5.75;1.80;;;21.10;59.20;;;;;;5112879;27;43553;-57
2022/10/11 09:08:33;;;;;;;2.47;1.70;;;21.20;59.40;;;;;;5116434;27;45033;-57
2022/10/11 09:11:09;;;;;;;2.80;1.43;;;21.30;59.00;;;;;;5113998;27;44096;-57
2022/10/11 09:13:55;;;;;;;1.80;1.50;;;21.40;59.00;;;;;;5115671;27;43455;-57
2022/10/11 09:17:03;;;;;;;2.47;1.75;;;21.50;58.80;;;;;;5112330;27;43396;-58
2022/10/11 09:19:33;;;;;;;1.60;1.50;;;21.50;58.80;;;;;;5116446;27;44048;-57
2022/10/11 09:22:43;;;;;;;3.15;1.40;;;21.50;58.80;;;;;;5118844;27;43468;-57
2022/10/11 09:25:16;;;;;;;2.47;1.60;;;21.60;58.70;;;;;;5117523;27;43462;-57
2022/10/11 09:28:05;;;;;;;2.88;1.30;;;21.60;58.70;;;;;;5114599;27;43584;-57
2022/10/11 09:30:36;;;;;;;5.70;1.67;;;21.70;58.70;;;;;;5109260;27;44146;-57
2022/10/11 09:33:16;;;;;;;4.33;1.47;;;21.80;58.60;;;;;;5114694;27;43552;-57
2022/10/11 09:35:50;;;;;;;3.25;1.40;;;21.90;58.70;;;;;;5116779;27;43466;-58
2022/10/11 09:38:27;;;;;;;3.67;2.15;;;22.00;58.50;;;;;;5121950;27;43541;-57
2022/10/11 09:41:19;;;;;;;2.22;1.40;;;22.10;58.20;;;;;;5119116;27;44987;-57
2022/10/11 09:43:49;;;;;;;4.30;1.50;;;22.20;58.80;;;;;;5118248;27;43983;-57
2022/10/11 09:46:25;;;;;;;3.05;1.63;;;22.20;58.10;;;;;;5117072;27;43425;-58
2022/10/11 09:48:56;;;;;;;2.95;1.48;;;22.30;58.00;;;;;;5113992;27;43518;-58
2022/10/11 09:51:27;;;;;;;2.53;1.48;;;22.30;57.90;;;;;;5117300;27;43869;-58
2022/10/11 09:53:59;;;;;;;3.17;1.45;;;22.40;58.50;;;;;;5116967;27;43715;-57
2022/10/11 09:56:29;;;;;;;2.83;1.30;;;22.30;58.00;;;;;;5112467;27;43425;-57
2022/10/11 09:59:25;;;;;;;2.15;1.30;;;22.30;57.90;;;;;;5116716;27;43474;-57
2022/10/11 10:02:11;;;;;;;3.20;1.40;;;22.40;58.00;;;;;;5113409;27;43989;-57
2022/10/11 10:05:04;;;;;;;1.73;1.40;;;22.40;57.80;;;;;;5120397;27;43978;-57
2022/10/11 10:07:33;;;;;;;3.22;1.38;;;22.50;57.80;;;;;;5111294;27;43594;-57
2022/10/11 10:10:33;;;;;;;2.70;1.30;;;22.50;57.80;;;;;;5115821;27;43493;-58
2022/10/11 10:13:02;;;;;;;2.10;1.30;;;22.70;57.80;;;;;;5116470;27;44795;-58
2022/10/11 10:15:35;;;;;;;2.50;1.30;;;22.70;57.80;;;;;;5113141;27;43470;-57
2022/10/11 10:18:09;;;;;;;3.50;1.55;;;22.70;57.60;;;;;;5120843;27;43483;-57
2022/10/11 10:20:37;;;;;;;3.15;1.48;;;22.80;57.60;;;;;;5117919;27;43407;-58
2022/10/11 10:23:27;;;;;;;3.03;1.25;;;22.80;57.50;;;;;;5114690;27;45306;-58
2022/10/11 10:26:21;;;;;;;2.43;1.20;;;22.80;57.30;;;;;;5119610;27;43522;-58
2022/10/11 10:29:01;;;;;;;1.98;1.15;;;22.90;57.60;;;;;;5113841;27;43444;-58
2022/10/11 10:31:48;;;;;;;2.53;1.33;;;22.90;57.60;;;;;;5116672;27;43403;-57
2022/10/11 10:34:59;;;;;;;3.38;1.45;;;22.90;57.60;;;;;;5117951;27;43906;-57
2022/10/11 10:37:55;;;;;;;2.53;1.50;;;22.90;57.70;;;;;;5095416;27;43825;-57
2022/10/11 10:40:39;;;;;;;3.47;1.50;;;22.90;57.70;;;;;;5074448;27;44188;-57
2022/10/11 10:43:14;;;;;;;1.98;1.30;;;22.90;57.70;;;;;;5122875;27;44029;-58
2022/10/11 10:45:53;;;;;;;2.47;1.30;;;22.90;57.70;;;;;;5118947;27;44171;-58
2022/10/11 10:49:02;;;;;;;2.05;1.23;;;23.00;57.80;;;;;;5114742;27;43489;-57
2022/10/11 10:51:53;;;;;;;2.38;1.20;;;23.00;57.80;;;;;;5099474;27;43575;-58
2022/10/11 10:54:32;;;;;;;2.75;1.30;;;23.00;57.80;;;;;;5118840;27;43569;-57
2022/10/11 10:57:18;;;;;;;2.83;1.25;;;23.00;57.90;;;;;;5097297;27;44032;-58
2022/10/11 11:00:12;;;;;;;2.03;1.13;;;23.00;58.00;;;;;;5114981;27;43427;-58
2022/10/11 11:02:51;;;;;;;2.88;1.48;;;22.90;57.90;;;;;;5121112;27;43975;-57
2022/10/11 11:05:40;;;;;;;2.53;1.40;;;22.90;58.00;;;;;;5110778;27;43626;-57
2022/10/11 11:08:17;;;;;;;2.47;1.40;;;22.90;58.00;;;;;;5116235;27;43867;-57
2022/10/11 11:11:10;;;;;;;2.05;1.33;;;22.90;58.00;;;;;;5117089;27;43538;-57
2022/10/11 11:14:20;;;;;;;3.15;1.15;;;22.90;58.00;;;;;;5105590;27;43451;-58
2022/10/11 11:17:21;;;;;;;3.45;1.38;;;22.80;58.00;;;;;;5056194;27;43610;-58
2022/10/11 11:20:17;;;;;;;1.85;1.27;;;22.80;58.20;;;;;;5112414;27;44808;-58
2022/10/11 11:23:15;;;;;;;2.80;1.35;;;22.80;58.40;;;;;;5072423;27;43722;-57
2022/10/11 11:26:11;;;;;;;3.08;1.38;;;22.80;58.40;;;;;;5119437;27;43581;-57
2022/10/11 11:28:54;;;;;;;3.33;1.30;;;22.80;58.30;;;;;;5114937;27;43956;-57
2022/10/11 11:31:33;;;;;;;4.10;1.35;;;22.80;58.40;;;;;;5115425;27;44064;-57
2022/10/11 11:34:22;;;;;;;3.05;1.40;;;22.90;58.40;;;;;;5111866;27;43685;-57
2022/10/11 11:37:00;;;;;;;4.35;1.70;;;22.90;58.40;;;;;;5115845;27;44123;-57
2022/10/11 11:39:42;;;;;;;3.13;1.30;;;22.90;58.40;;;;;;5112283;27;43458;-58
2022/10/11 11:42:34;;;;;;;1.58;1.00;;;22.90;58.40;;;;;;5110765;27;43819;-57
2022/10/11 11:45:14;;;;;;;3.20;1.30;;;22.90;58.40;;;;;;5104868;27;43781;-58
2022/10/11 11:47:46;;;;;;;2.38;1.23;;;22.90;58.50;;;;;;5112501;27;43509;-57
2022/10/11 11:50:22;;;;;;;3.72;1.38;;;22.90;58.60;;;;;;5119986;27;43485;-58
2022/10/11 11:52:55;;;;;;;2.65;1.13;;;22.90;58.50;;;;;;5117532;27;43676;-57
2022/10/11 11:55:42;;;;;;;1.60;1.05;;;22.90;58.60;;;;;;5113287;27;44274;-57
2022/10/11 11:58:24;;;;;;;2.10;1.15;;;22.90;58.60;;;;;;5119361;27;43523;-57
2022/10/11 12:00:52;;;;;;;2.10;1.30;;;22.90;58.70;;;;;;5119909;27;43463;-57
2022/10/11 12:03:30;;;;;;;3.85;1.50;;;22.90;58.70;;;;;;5110544;27;44699;-57
2022/10/11 12:06:13;;;;;;;1.85;1.00;;;22.90;58.70;;;;;;5099524;27;43516;-57
2022/10/11 12:08:43;;;;;;;2.00;1.02;;;22.90;58.60;;;;;;5119688;27;43385;-57
2022/10/11 12:11:28;;;;;;;1.37;1.00;;;22.90;58.60;;;;;;5121824;27;43722;-57
2022/10/11 12:14:36;;;;;;;2.22;1.15;;;22.90;58.60;;;;;;5108692;27;44050;-57
2022/10/11 12:17:18;;;;;;;2.17;1.23;;;22.90;58.50;;;;;;5105777;27;44004;-57
2022/10/11 12:20:21;;;;;;;2.15;1.20;;;22.90;58.60;;;;;;5107907;27;43939;-58
2022/10/11 12:22:49;;;;;;;3.67;1.20;;;22.90;58.70;;;;;;5111240;27;43420;-57
2022/10/11 12:25:31;;;;;;;2.15;1.00;;;22.80;58.60;;;;;;5118862;27;43739;-57
2022/10/11 12:28:36;;;;;;;2.33;1.17;;;22.80;58.60;;;;;;5111249;27;43697;-57
2022/10/11 12:31:16;;;;;;;1.63;1.10;;;22.90;58.60;;;;;;5112407;27;43454;-57
2022/10/11 12:33:50;;;;;;;3.13;1.00;;;22.80;58.60;;;;;;5111613;27;43958;-57
2022/10/11 12:36:30;;;;;;;2.22;0.95;;;22.80;58.60;;;;;;5121737;27;43740;-57
2022/10/11 12:39:19;;;;;;;2.20;1.02;;;22.80;58.60;;;;;;5108726;27;43442;-57
2022/10/11 12:41:47;;;;;;;3.42;1.30;;;22.80;58.60;;;;;;5111795;27;43521;-57
2022/10/11 12:44:18;;;;;;;1.92;1.10;;;22.80;58.70;;;;;;5116443;27;43434;-57
2022/10/11 12:46:54;;;;;;;1.65;1.05;;;22.80;58.70;;;;;;5108653;27;44744;-57
2022/10/11 12:50:09;;;;;;;2.45;1.10;;;22.80;58.70;;;;;;5107539;27;43425;-57
2022/10/11 12:52:51;;;;;;;2.03;1.02;;;22.80;58.70;;;;;;5021904;28;43540;-57
2022/10/11 12:56:06;;;;;;;2.60;1.00;;;22.80;58.70;;;;;;5121002;27;43490;-58
2022/10/11 12:58:40;;;;;;;1.50;0.95;;;22.80;58.80;;;;;;5092553;27;43656;-57
2022/10/11 13:01:17;;;;;;;2.40;1.15;;;22.80;58.80;;;;;;5122507;27;43527;-57
2022/10/11 13:04:03;;;;;;;2.70;1.08;;;22.80;58.70;;;;;;5120428;27;43665;-57
2022/10/11 13:06:35;;;;;;;2.20;1.10;;;22.80;58.80;;;;;;5123107;27;43443;-57
2022/10/11 13:09:30;;;;;;;3.47;1.73;;;22.80;58.90;;;;;;5122236;27;43944;-57
2022/10/11 13:12:20;;;;;;;2.42;1.15;;;22.80;59.00;;;;;;5111405;27;43513;-57
2022/10/11 13:15:05;;;;;;;1.58;1.00;;;22.80;58.90;;;;;;5113035;27;43998;-57
2022/10/11 13:17:36;;;;;;;1.63;0.90;;;22.80;58.90;;;;;;5112993;27;43387;-57
2022/10/11 13:20:19;;;;;;;1.27;0.90;;;22.80;59.00;;;;;;5119607;27;44174;-57
2022/10/11 13:22:49;;;;;;;2.00;1.10;;;22.80;59.00;;;;;;5124270;27;44019;-58
2022/10/11 13:25:20;;;;;;;1.63;1.30;;;22.80;58.90;;;;;;5112772;27;43423;-58
2022/10/11 13:27:51;;;;;;;1.70;0.90;;;22.80;58.90;;;;;;5121657;27;43560;-57